Time;durP1;ratioP1;P1;durP2;ratioP2;P2;SDS_P1;SDS_P2;PMS_P1;PMS_P2;Temp;Humidity;BMP_temperature;BMP_pressure;BME280_temperature;BME280_humidity;BME280_pressure;Samples;Min_cycle;Max_cycle;Signal;HPM_P1;HPM_P2
2024/03/21 00:02:21;;;;;;;26.55;18.55;;;13.30;99.90;;;;;;5026748;28;20026;-74
2024/03/21 00:04:47;;;;;;;25.75;18.20;;;13.30;99.90;;;;;;5012611;28;20519;-73
2024/03/21 00:07:13;;;;;;;25.65;18.80;;;13.30;99.90;;;;;;5026487;28;20495;-73
2024/03/21 00:09:39;;;;;;;28.92;18.25;;;13.30;99.90;;;;;;5012104;28;20080;-73
2024/03/21 00:12:06;;;;;;;27.23;18.05;;;13.30;99.90;;;;;;5019300;28;20108;-74
2024/03/21 00:14:32;;;;;;;28.13;18.83;;;13.20;99.90;;;;;;5019975;28;20037;-74
2024/03/21 00:16:58;;;;;;;31.65;19.83;;;13.20;99.90;;;;;;5020834;28;20049;-74
2024/03/21 00:19:23;;;;;;;28.33;19.38;;;13.20;99.90;;;;;;5018276;28;20033;-73
2024/03/21 00:21:50;;;;;;;31.73;19.30;;;13.20;99.90;;;;;;5026637;28;20386;-74
2024/03/21 00:24:16;;;;;;;30.73;19.63;;;13.20;99.90;;;;;;5016311;28;20063;-74
2024/03/21 00:26:42;;;;;;;27.75;18.55;;;13.20;99.90;;;;;;5020322;28;20029;-73
2024/03/21 00:29:08;;;;;;;28.08;18.42;;;13.10;99.90;;;;;;5009685;28;20527;-73
2024/03/21 00:31:35;;;;;;;27.85;18.20;;;13.10;99.90;;;;;;5016458;28;20113;-74
2024/03/21 00:34:01;;;;;;;26.63;18.33;;;13.10;99.90;;;;;;5023124;28;20037;-74
2024/03/21 00:36:27;;;;;;;30.02;19.00;;;13.10;99.90;;;;;;5025807;28;20025;-73
2024/03/21 00:38:53;;;;;;;26.42;17.73;;;13.10;99.90;;;;;;5011771;28;20022;-74
2024/03/21 00:41:22;;;;;;;26.67;18.38;;;13.00;99.90;;;;;;5019882;28;20030;-74
2024/03/21 00:43:47;;;;;;;28.27;18.75;;;13.00;99.90;;;;;;5018723;28;20108;-73
2024/03/21 00:46:14;;;;;;;31.23;20.92;;;13.00;99.90;;;;;;5012055;28;20128;-73
2024/03/21 00:48:40;;;;;;;32.47;19.73;;;13.00;99.90;;;;;;5014979;28;20561;-73
2024/03/21 00:51:05;;;;;;;28.55;20.35;;;13.00;99.90;;;;;;5020167;28;20045;-73
2024/03/21 00:53:31;;;;;;;28.95;18.80;;;13.00;99.90;;;;;;5014752;28;20044;-73
2024/03/21 00:55:57;;;;;;;29.13;21.00;;;13.00;99.90;;;;;;5012510;28;20051;-73
2024/03/21 00:58:24;;;;;;;30.27;20.45;;;13.00;99.90;;;;;;5017257;28;20207;-73
2024/03/21 01:00:50;;;;;;;29.20;19.95;;;13.00;99.90;;;;;;5020480;28;20022;-74
2024/03/21 01:03:15;;;;;;;29.90;19.77;;;13.00;99.90;;;;;;5024676;28;20061;-74
2024/03/21 01:05:43;;;;;;;31.67;19.95;;;13.00;99.90;;;;;;5021098;28;20017;-74
2024/03/21 01:14:53;;;;;;;28.58;19.98;;;12.90;99.90;;;;;;5029869;28;20172;-74
2024/03/21 01:17:19;;;;;;;31.05;20.50;;;12.90;99.90;;;;;;5019659;28;20141;-74
2024/03/21 01:19:44;;;;;;;33.40;22.10;;;12.90;99.90;;;;;;5024102;28;20444;-73
2024/03/21 01:22:10;;;;;;;34.20;21.27;;;12.90;99.90;;;;;;5028262;28;20032;-73
2024/03/21 01:24:37;;;;;;;28.65;20.13;;;12.90;99.90;;;;;;5014687;28;20026;-73
2024/03/21 01:27:03;;;;;;;35.70;21.10;;;12.80;99.90;;;;;;5028551;28;20086;-73
2024/03/21 01:29:29;;;;;;;26.35;19.17;;;12.80;99.90;;;;;;5025182;28;20089;-73
2024/03/21 01:31:54;;;;;;;33.05;21.98;;;12.80;99.90;;;;;;5028096;28;20473;-72
2024/03/21 01:34:20;;;;;;;29.60;20.20;;;12.80;99.90;;;;;;5022601;28;20026;-73
2024/03/21 01:36:47;;;;;;;32.78;21.25;;;12.70;99.90;;;;;;5020342;28;20100;-73
2024/03/21 01:39:14;;;;;;;32.45;19.60;;;12.70;99.90;;;;;;5015070;28;20056;-74
2024/03/21 01:41:40;;;;;;;29.42;18.55;;;12.70;99.90;;;;;;5020106;28;20026;-73
2024/03/21 01:44:14;;;;;;;29.73;20.13;;;12.60;99.90;;;;;;5023017;28;20104;-73
2024/03/21 01:46:40;;;;;;;33.03;22.05;;;12.50;99.90;;;;;;5017593;28;20037;-73
2024/03/21 01:49:05;;;;;;;29.85;20.13;;;12.50;99.90;;;;;;5028003;28;20517;-73
2024/03/21 01:51:31;;;;;;;31.40;18.17;;;12.50;99.90;;;;;;5015832;28;20025;-73
2024/03/21 01:53:57;;;;;;;30.85;20.92;;;12.50;99.90;;;;;;5016951;28;20157;-74
2024/03/21 01:56:23;;;;;;;33.40;22.52;;;12.40;99.90;;;;;;5023048;28;20444;-73
2024/03/21 01:58:49;;;;;;;33.30;22.27;;;12.40;99.90;;;;;;5019693;28;20025;-74
2024/03/21 02:01:28;;;;;;;32.65;23.88;;;12.40;99.90;;;;;;5029150;28;20098;-74
2024/03/21 02:03:59;;;;;;;31.95;22.73;;;12.40;99.90;;;;;;5027445;28;20034;-74
2024/03/21 02:06:27;;;;;;;32.97;22.83;;;12.40;99.90;;;;;;5024365;28;20029;-74
2024/03/21 02:08:53;;;;;;;35.60;24.33;;;12.50;99.90;;;;;;5017790;28;20064;-74
2024/03/21 02:11:22;;;;;;;35.17;23.23;;;12.40;99.90;;;;;;5014639;28;20377;-74
2024/03/21 02:13:53;;;;;;;35.58;24.30;;;12.40;99.90;;;;;;5019918;28;20030;-74
2024/03/21 02:16:21;;;;;;;33.85;23.98;;;12.40;99.90;;;;;;5034552;28;20038;-74
2024/03/21 02:18:46;;;;;;;36.78;23.90;;;12.40;99.90;;;;;;5015234;28;20560;-74
2024/03/21 02:23:56;;;;;;;33.05;24.63;;;12.50;99.90;;;;;;5015638;28;20028;-73
2024/03/21 02:26:24;;;;;;;35.95;24.42;;;12.40;99.90;;;;;;5015106;28;20056;-75
2024/03/21 02:28:50;;;;;;;33.10;21.95;;;12.40;99.90;;;;;;5023384;28;20018;-74
2024/03/21 02:31:19;;;;;;;36.47;23.60;;;12.40;99.90;;;;;;5028387;28;20128;-74
2024/03/21 02:33:46;;;;;;;34.90;22.92;;;12.40;99.90;;;;;;5028017;28;20430;-74
2024/03/21 02:36:12;;;;;;;30.17;20.15;;;12.40;99.90;;;;;;5028577;28;20025;-73
2024/03/21 02:38:37;;;;;;;30.10;22.17;;;12.40;99.90;;;;;;5027666;28;20525;-74
2024/03/21 02:41:04;;;;;;;36.05;23.85;;;12.40;99.90;;;;;;5014367;28;20014;-74
2024/03/21 02:43:29;;;;;;;32.28;21.73;;;12.40;99.90;;;;;;5027529;28;20041;-74
2024/03/21 02:45:55;;;;;;;31.00;21.77;;;12.40;99.90;;;;;;5025929;28;20102;-74
2024/03/21 02:48:20;;;;;;;31.05;21.30;;;12.40;99.90;;;;;;5015936;28;20053;-74
2024/03/21 02:50:46;;;;;;;27.48;20.95;;;12.40;99.90;;;;;;5028138;28;20021;-74
2024/03/21 02:53:12;;;;;;;27.40;20.30;;;12.40;99.90;;;;;;5021718;28;20515;-74
2024/03/21 02:55:38;;;;;;;30.92;20.88;;;12.40;99.90;;;;;;5020077;28;20084;-74
2024/03/21 02:58:03;;;;;;;26.80;19.45;;;12.40;99.90;;;;;;5027876;28;20486;-74
2024/03/21 03:00:29;;;;;;;29.00;19.15;;;12.40;99.90;;;;;;5017044;28;20030;-74
2024/03/21 03:02:55;;;;;;;27.75;19.02;;;12.40;99.90;;;;;;5023711;28;20036;-74
2024/03/21 03:05:21;;;;;;;24.42;18.20;;;12.40;99.90;;;;;;5017149;28;20034;-74
2024/03/21 03:07:46;;;;;;;25.38;17.63;;;12.40;99.90;;;;;;5021793;28;20036;-74
2024/03/21 03:10:14;;;;;;;23.80;16.48;;;12.40;99.90;;;;;;5027373;28;20542;-74
2024/03/21 03:12:39;;;;;;;21.88;16.45;;;12.40;99.90;;;;;;5015080;28;20471;-74
2024/03/21 03:15:05;;;;;;;23.95;16.58;;;12.40;99.90;;;;;;5025668;28;20025;-74
2024/03/21 03:17:32;;;;;;;24.20;16.80;;;12.40;99.90;;;;;;5027430;28;20053;-73
2024/03/21 03:19:57;;;;;;;25.52;17.95;;;12.40;99.90;;;;;;5013085;28;20032;-75
2024/03/21 03:22:23;;;;;;;25.27;17.25;;;12.40;99.90;;;;;;5027218;28;20029;-74
2024/03/21 03:24:49;;;;;;;25.73;17.80;;;12.40;99.90;;;;;;5013180;28;20406;-73
2024/03/21 03:27:14;;;;;;;22.38;16.55;;;12.40;99.90;;;;;;5020794;28;20065;-74
2024/03/21 03:29:40;;;;;;;26.67;17.85;;;12.30;99.90;;;;;;5018993;28;20100;-74
2024/03/21 03:32:08;;;;;;;25.65;17.83;;;12.30;99.90;;;;;;5027447;28;20479;-74
2024/03/21 03:37:18;;;;;;;26.80;17.20;;;12.30;99.90;;;;;;5022797;28;20222;-74
2024/03/21 03:39:44;;;;;;;26.95;17.83;;;12.30;99.90;;;;;;5026381;28;20029;-74
2024/03/21 03:42:09;;;;;;;29.27;17.80;;;12.30;99.90;;;;;;5013976;28;20030;-74
2024/03/21 03:44:35;;;;;;;27.15;18.17;;;12.30;99.90;;;;;;5020580;28;20829;-74
2024/03/21 03:47:02;;;;;;;24.20;17.17;;;12.20;99.90;;;;;;5018565;28;20449;-74
2024/03/21 03:49:28;;;;;;;25.02;17.52;;;12.20;99.90;;;;;;5021628;28;20405;-74
2024/03/21 03:51:55;;;;;;;24.83;16.92;;;12.20;99.90;;;;;;5016817;28;20026;-75
2024/03/21 03:54:20;;;;;;;27.15;18.60;;;12.20;99.90;;;;;;5012281;28;20049;-74
2024/03/21 03:56:46;;;;;;;26.77;18.35;;;12.10;99.90;;;;;;5019622;28;20065;-74
2024/03/21 03:59:12;;;;;;;24.65;17.88;;;12.10;99.90;;;;;;5020226;28;20112;-74
2024/03/21 04:01:37;;;;;;;26.30;18.63;;;12.10;99.90;;;;;;5012709;28;20100;-74
2024/03/21 04:04:03;;;;;;;25.20;18.10;;;12.10;99.90;;;;;;5014676;28;20061;-74
2024/03/21 04:06:29;;;;;;;25.75;18.65;;;12.00;99.90;;;;;;5024115;28;20022;-74
2024/03/21 04:08:56;;;;;;;28.35;20.00;;;12.00;99.90;;;;;;5026178;28;20037;-74
2024/03/21 04:11:22;;;;;;;25.02;19.40;;;12.00;99.90;;;;;;5012537;28;20021;-74
2024/03/21 04:13:48;;;;;;;26.17;19.33;;;12.00;99.90;;;;;;5026012;28;20032;-74
2024/03/21 04:16:16;;;;;;;26.17;19.35;;;12.00;99.90;;;;;;5026741;28;20025;-74
2024/03/21 04:18:42;;;;;;;28.42;19.75;;;12.00;99.90;;;;;;5024151;28;20053;-74
2024/03/21 04:21:07;;;;;;;24.88;18.70;;;12.00;99.90;;;;;;5018780;28;20179;-74
2024/03/21 04:23:33;;;;;;;27.80;19.80;;;12.00;99.90;;;;;;5020521;28;20022;-74
2024/03/21 04:25:59;;;;;;;29.20;20.60;;;12.00;99.90;;;;;;5015120;28;20421;-74
2024/03/21 04:28:24;;;;;;;27.35;19.42;;;12.00;99.90;;;;;;5012225;28;20038;-75
2024/03/21 04:30:50;;;;;;;26.95;19.92;;;12.00;99.90;;;;;;5010440;28;20021;-74
2024/03/21 04:33:16;;;;;;;25.77;18.60;;;12.00;99.90;;;;;;5016124;28;20124;-74
2024/03/21 04:35:42;;;;;;;26.33;18.88;;;12.00;99.90;;;;;;5021517;28;20025;-74
2024/03/21 04:38:08;;;;;;;23.95;17.92;;;12.00;99.90;;;;;;5026434;28;20032;-74
2024/03/21 04:40:34;;;;;;;25.27;18.10;;;12.00;99.90;;;;;;5025705;28;20049;-74
2024/03/21 04:43:00;;;;;;;24.23;17.02;;;12.00;99.90;;;;;;5019952;28;20045;-75
2024/03/21 04:45:25;;;;;;;23.85;17.05;;;12.10;99.90;;;;;;5017909;28;20033;-74
2024/03/21 04:47:51;;;;;;;22.05;15.10;;;12.00;99.90;;;;;;5021758;28;20030;-75
2024/03/21 04:50:22;;;;;;;19.00;12.57;;;12.10;99.90;;;;;;5016129;28;20022;-74
2024/03/21 04:52:47;;;;;;;15.27;11.57;;;12.00;99.90;;;;;;5012069;28;20036;-75
2024/03/21 04:55:13;;;;;;;15.23;10.98;;;12.10;99.90;;;;;;5016560;28;20669;-74
2024/03/21 04:57:39;;;;;;;12.70;9.13;;;12.00;99.90;;;;;;5020001;28;20409;-73
2024/03/21 05:00:10;;;;;;;10.27;7.38;;;12.00;99.90;;;;;;5009093;28;20101;-74
2024/03/21 05:02:42;;;;;;;10.27;6.53;;;12.00;99.90;;;;;;5019142;28;20043;-74
2024/03/21 05:05:09;;;;;;;7.25;4.93;;;12.00;99.90;;;;;;5007456;28;20065;-74
2024/03/21 05:07:35;;;;;;;7.30;5.43;;;11.90;99.90;;;;;;5030258;28;20544;-74
2024/03/21 05:10:01;;;;;;;7.82;4.88;;;11.90;99.90;;;;;;5019999;28;20022;-75
2024/03/21 05:12:27;;;;;;;7.80;4.88;;;11.80;99.90;;;;;;5016754;28;20056;-76
2024/03/21 05:14:54;;;;;;;8.95;4.28;;;11.80;99.90;;;;;;5022742;28;20034;-75
2024/03/21 05:17:20;;;;;;;6.25;4.43;;;11.70;99.90;;;;;;5014826;28;20066;-75
2024/03/21 05:19:47;;;;;;;5.93;4.07;;;11.60;99.90;;;;;;5023314;28;20521;-74
2024/03/21 05:22:13;;;;;;;6.50;4.00;;;11.60;99.90;;;;;;5018748;28;20033;-74
2024/03/21 05:24:39;;;;;;;4.72;3.40;;;11.50;99.90;;;;;;5025534;28;20030;-74
2024/03/21 05:27:06;;;;;;;6.97;3.60;;;11.50;99.90;;;;;;5011965;28;20186;-74
2024/03/21 05:29:32;;;;;;;4.07;3.13;;;11.50;99.90;;;;;;5027524;28;20018;-74
2024/03/21 05:31:58;;;;;;;5.80;3.38;;;11.50;99.90;;;;;;5025697;28;20017;-75
2024/03/21 05:34:23;;;;;;;4.65;3.38;;;11.40;99.90;;;;;;5025318;28;20360;-74
2024/03/21 05:36:49;;;;;;;7.18;3.25;;;11.40;99.90;;;;;;5024045;28;20030;-74
2024/03/21 05:39:15;;;;;;;4.45;3.38;;;11.40;99.90;;;;;;5025236;28;20060;-74
2024/03/21 05:41:40;;;;;;;4.93;3.33;;;11.40;99.90;;;;;;5024994;28;20159;-74
2024/03/21 05:44:06;;;;;;;6.07;4.00;;;11.30;99.90;;;;;;5010153;28;20517;-74
2024/03/21 05:46:32;;;;;;;6.75;4.20;;;11.30;99.90;;;;;;5012743;28;20451;-74
2024/03/21 05:48:58;;;;;;;6.13;4.30;;;11.30;99.90;;;;;;5028402;28;20030;-74
2024/03/21 05:51:24;;;;;;;7.13;4.30;;;11.30;99.90;;;;;;5023655;28;20022;-73
2024/03/21 05:53:50;;;;;;;7.28;4.65;;;11.20;99.90;;;;;;5020876;28;20072;-74
2024/03/21 05:56:19;;;;;;;7.00;4.85;;;11.20;99.90;;;;;;5027410;28;20069;-75
2024/03/21 05:58:44;;;;;;;6.43;5.32;;;11.20;99.90;;;;;;5019346;28;20014;-74
2024/03/21 06:03:44;;;;;;;7.22;5.18;;;11.20;99.90;;;;;;5017898;28;20047;-74
2024/03/21 06:06:10;;;;;;;6.00;4.93;;;11.20;99.90;;;;;;5028188;28;20017;-74
2024/03/21 06:08:36;;;;;;;8.20;6.30;;;11.20;99.90;;;;;;5022196;28;20030;-74
2024/03/21 06:11:03;;;;;;;9.02;6.43;;;11.20;99.90;;;;;;5021594;28;20067;-74
2024/03/21 06:13:29;;;;;;;7.82;6.35;;;11.20;99.90;;;;;;5014885;28;20079;-74
2024/03/21 06:15:55;;;;;;;9.35;6.10;;;11.20;99.90;;;;;;5017457;28;20030;-74
2024/03/21 06:18:21;;;;;;;8.18;5.65;;;11.20;99.90;;;;;;5024192;28;20061;-74
2024/03/21 06:20:46;;;;;;;6.07;3.88;;;11.20;99.90;;;;;;5028175;28;20817;-75
2024/03/21 06:23:12;;;;;;;5.60;3.28;;;11.10;99.90;;;;;;5027376;28;20063;-74
2024/03/21 06:25:38;;;;;;;7.43;3.47;;;11.00;99.90;;;;;;5015406;28;20116;-74
2024/03/21 06:28:05;;;;;;;5.50;2.42;;;11.00;99.90;;;;;;5015247;28;20026;-74
2024/03/21 06:30:31;;;;;;;4.88;2.35;;;11.00;99.90;;;;;;5026817;28;20100;-74
2024/03/21 06:32:57;;;;;;;5.10;1.90;;;10.90;99.90;;;;;;5027693;28;20018;-74
2024/03/21 06:35:23;;;;;;;3.05;1.45;;;10.90;99.90;;;;;;5027908;28;20475;-74
2024/03/21 06:37:53;;;;;;;6.78;1.20;;;10.90;99.90;;;;;;5023177;28;20022;-75
2024/03/21 06:40:18;;;;;;;5.95;1.85;;;10.80;99.90;;;;;;5020582;28;20110;-74
2024/03/21 06:42:44;;;;;;;10.00;2.40;;;10.80;99.90;;;;;;5012790;28;20561;-75
2024/03/21 06:45:10;;;;;;;4.72;1.70;;;10.80;99.90;;;;;;5026187;28;20083;-74
2024/03/21 06:47:45;;;;;;;5.80;1.52;;;10.80;99.90;;;;;;5027366;28;20129;-75
2024/03/21 06:50:18;;;;;;;4.43;1.20;;;10.80;99.90;;;;;;5021277;28;20096;-75
2024/03/21 06:52:44;;;;;;;5.35;1.48;;;10.70;99.90;;;;;;5026943;28;20022;-74
2024/03/21 06:55:17;;;;;;;3.00;1.30;;;10.70;99.90;;;;;;5027798;28;20016;-74
2024/03/21 06:57:46;;;;;;;3.90;1.35;;;10.70;99.90;;;;;;5025688;28;20030;-74
2024/03/21 07:00:13;;;;;;;4.72;1.40;;;10.70;99.90;;;;;;5015619;28;20065;-74
2024/03/21 07:02:39;;;;;;;4.97;1.30;;;10.70;99.90;;;;;;5025744;28;20037;-74
2024/03/21 07:05:09;;;;;;;4.40;1.20;;;10.70;99.90;;;;;;5015991;28;20486;-74
2024/03/21 07:07:35;;;;;;;5.82;1.65;;;10.60;99.90;;;;;;5027198;28;20017;-74
2024/03/21 07:10:01;;;;;;;5.45;1.30;;;10.60;99.90;;;;;;5025880;28;20017;-74
2024/03/21 07:12:27;;;;;;;3.55;1.40;;;10.70;99.90;;;;;;5027262;28;20533;-74
2024/03/21 07:14:53;;;;;;;5.10;1.45;;;10.70;99.90;;;;;;5026944;28;20025;-74
2024/03/21 07:17:19;;;;;;;4.13;1.25;;;10.70;99.90;;;;;;5027171;28;20049;-74
2024/03/21 07:19:45;;;;;;;5.22;1.30;;;10.60;99.90;;;;;;5026127;28;20071;-74
2024/03/21 07:22:11;;;;;;;5.28;1.20;;;10.70;99.90;;;;;;5027075;28;20376;-74
2024/03/21 07:24:37;;;;;;;8.68;1.50;;;10.70;99.90;;;;;;5019001;28;20088;-73
2024/03/21 07:27:03;;;;;;;4.70;1.30;;;10.70;99.90;;;;;;5026161;28;20018;-72
2024/03/21 07:29:29;;;;;;;4.07;1.08;;;10.70;99.90;;;;;;5025912;28;20475;-73
2024/03/21 07:31:56;;;;;;;5.55;1.40;;;10.80;99.90;;;;;;5026118;28;20064;-75
2024/03/21 07:34:22;;;;;;;3.28;0.98;;;10.80;99.90;;;;;;5023360;28;20096;-74
2024/03/21 07:36:48;;;;;;;5.40;1.50;;;10.80;99.90;;;;;;5022726;28;20108;-74
2024/03/21 07:39:14;;;;;;;5.55;1.52;;;10.80;99.90;;;;;;5015841;28;20060;-74
2024/03/21 07:41:39;;;;;;;9.38;1.98;;;10.80;99.90;;;;;;5025145;28;20270;-74
2024/03/21 07:44:05;;;;;;;5.70;1.40;;;10.80;99.90;;;;;;5024923;28;20364;-74
2024/03/21 07:46:31;;;;;;;3.30;0.90;;;10.80;99.90;;;;;;5023061;28;20540;-75
2024/03/21 07:48:58;;;;;;;5.25;1.23;;;10.80;99.90;;;;;;5016313;28;20109;-74
2024/03/21 07:51:24;;;;;;;3.72;1.08;;;10.80;99.90;;;;;;5020174;28;20080;-74
2024/03/21 07:53:50;;;;;;;7.15;1.20;;;10.80;99.90;;;;;;5018444;28;20036;-72
2024/03/21 07:56:16;;;;;;;7.75;1.30;;;10.80;99.90;;;;;;5024706;28;20017;-75
2024/03/21 07:58:41;;;;;;;5.13;1.17;;;10.90;99.90;;;;;;5024578;28;20426;-74
2024/03/21 08:01:07;;;;;;;8.55;1.27;;;10.90;99.90;;;;;;5010575;28;20054;-74
2024/03/21 08:03:33;;;;;;;5.10;1.17;;;10.90;99.90;;;;;;5027650;28;20045;-75
2024/03/21 08:05:58;;;;;;;6.30;1.08;;;10.90;99.90;;;;;;5024712;28;20582;-75
2024/03/21 08:08:24;;;;;;;3.80;1.35;;;10.90;99.90;;;;;;5010810;28;20044;-74
2024/03/21 08:10:50;;;;;;;7.28;1.20;;;11.00;99.90;;;;;;5012886;28;20024;-75
2024/03/21 08:13:16;;;;;;;5.75;1.10;;;11.00;99.90;;;;;;5020706;28;20037;-74
2024/03/21 08:15:42;;;;;;;6.43;1.13;;;11.10;99.90;;;;;;5015552;28;20111;-74
2024/03/21 08:18:08;;;;;;;5.63;1.38;;;11.10;99.90;;;;;;5012592;28;20503;-74
2024/03/21 08:20:33;;;;;;;4.70;1.17;;;11.10;99.90;;;;;;5027132;28;20050;-74
2024/03/21 08:22:59;;;;;;;4.88;1.33;;;11.10;99.90;;;;;;5026601;28;20112;-75
2024/03/21 08:25:25;;;;;;;8.38;1.33;;;11.10;99.90;;;;;;5019097;28;20084;-74
2024/03/21 08:27:51;;;;;;;4.45;1.08;;;11.20;99.90;;;;;;5006089;28;20033;-75
2024/03/21 08:30:16;;;;;;;6.20;1.50;;;11.30;99.90;;;;;;5019508;28;20037;-72
2024/03/21 08:32:42;;;;;;;9.60;1.42;;;11.20;99.90;;;;;;5025319;28;20029;-72
2024/03/21 08:35:07;;;;;;;5.80;1.13;;;11.30;99.90;;;;;;5023981;28;20028;-72
2024/03/21 08:37:33;;;;;;;8.48;1.58;;;11.40;99.90;;;;;;5024889;28;20567;-73
2024/03/21 08:40:00;;;;;;;6.32;1.42;;;11.40;99.90;;;;;;5016390;28;20018;-73
2024/03/21 08:42:27;;;;;;;5.15;1.52;;;11.50;99.90;;;;;;5021891;28;20033;-74
2024/03/21 08:44:58;;;;;;;6.32;1.45;;;11.50;99.90;;;;;;5023900;28;20531;-73
2024/03/21 08:47:23;;;;;;;7.60;1.35;;;11.50;99.90;;;;;;5023821;28;20103;-73
2024/03/21 08:49:49;;;;;;;5.82;1.20;;;11.60;99.90;;;;;;5012272;28;20053;-74
2024/03/21 08:52:15;;;;;;;4.90;1.40;;;11.60;99.90;;;;;;5014186;28;20107;-73
2024/03/21 08:54:40;;;;;;;6.15;1.52;;;11.70;99.90;;;;;;5019430;28;20149;-74
2024/03/21 08:57:06;;;;;;;5.50;1.35;;;11.70;99.90;;;;;;5010375;28;20058;-73
2024/03/21 08:59:32;;;;;;;7.30;1.50;;;11.70;99.90;;;;;;5019011;28;20022;-74
2024/03/21 09:02:04;;;;;;;5.57;1.75;;;11.80;99.90;;;;;;5025840;28;20037;-74
2024/03/21 09:04:30;;;;;;;6.28;1.60;;;11.80;99.90;;;;;;5016008;28;20108;-73
2024/03/21 09:06:56;;;;;;;8.10;1.65;;;11.80;99.90;;;;;;5025174;28;20578;-74
2024/03/21 09:09:21;;;;;;;6.70;1.40;;;11.80;99.90;;;;;;5033378;28;20171;-73
2024/03/21 09:11:47;;;;;;;4.30;1.15;;;11.80;99.90;;;;;;5025024;28;20084;-72
2024/03/21 09:14:13;;;;;;;4.13;1.40;;;11.90;99.90;;;;;;5020807;28;20033;-74
2024/03/21 09:16:38;;;;;;;4.25;1.38;;;11.90;99.90;;;;;;5024829;28;20045;-73
2024/03/21 09:19:04;;;;;;;5.43;1.50;;;12.00;99.90;;;;;;5025003;28;20123;-74
2024/03/21 09:21:31;;;;;;;4.75;1.10;;;12.00;99.90;;;;;;5025598;28;20112;-74
2024/03/21 09:23:57;;;;;;;5.75;1.52;;;12.10;99.90;;;;;;5028167;28;20043;-74
2024/03/21 09:26:23;;;;;;;3.95;1.38;;;12.00;99.90;;;;;;5028915;28;20135;-74
2024/03/21 09:28:49;;;;;;;5.70;1.40;;;12.10;99.90;;;;;;5027647;28;20103;-73
2024/03/21 09:31:14;;;;;;;5.68;1.60;;;12.10;99.90;;;;;;5021037;28;20029;-72
2024/03/21 09:33:40;;;;;;;5.45;1.60;;;12.20;99.90;;;;;;5034699;28;20021;-74
2024/03/21 09:36:08;;;;;;;6.05;1.27;;;12.20;99.90;;;;;;5029133;28;20028;-74
2024/03/21 09:38:34;;;;;;;5.22;1.20;;;12.20;99.90;;;;;;5031318;28;20033;-73
2024/03/21 09:41:00;;;;;;;4.75;1.30;;;12.20;99.90;;;;;;5028750;28;20063;-73
2024/03/21 09:43:27;;;;;;;8.93;1.60;;;12.30;99.90;;;;;;5028054;28;20040;-73
2024/03/21 09:45:53;;;;;;;6.30;1.40;;;12.30;99.90;;;;;;5026749;28;20428;-72
2024/03/21 09:48:19;;;;;;;6.95;2.00;;;12.30;99.90;;;;;;5026646;28;20025;-73
2024/03/21 09:50:47;;;;;;;7.32;1.40;;;12.40;99.90;;;;;;5028578;28;20013;-72
2024/03/21 09:53:16;;;;;;;7.30;1.85;;;12.40;99.90;;;;;;5028826;28;20017;-73
2024/03/21 09:55:45;;;;;;;7.88;1.63;;;12.40;99.90;;;;;;5028682;28;20068;-72
2024/03/21 09:58:14;;;;;;;5.20;1.23;;;12.50;99.90;;;;;;5027995;28;20403;-73
2024/03/21 10:00:41;;;;;;;7.85;1.85;;;12.60;99.90;;;;;;5028295;28;20021;-73
2024/03/21 10:03:13;;;;;;;6.38;1.65;;;12.60;99.90;;;;;;5028790;28;20028;-73
2024/03/21 10:05:40;;;;;;;6.10;1.70;;;12.50;99.90;;;;;;5027973;28;20413;-72
2024/03/21 10:08:05;;;;;;;7.60;2.13;;;12.60;99.90;;;;;;5028056;28;20036;-72
2024/03/21 10:10:33;;;;;;;9.73;1.80;;;12.60;99.90;;;;;;5028353;28;20395;-72
2024/03/21 10:12:58;;;;;;;5.55;1.73;;;12.60;99.90;;;;;;5028656;28;20083;-73
2024/03/21 10:15:24;;;;;;;7.32;2.22;;;12.60;99.90;;;;;;5028330;28;20026;-73
2024/03/21 10:17:50;;;;;;;6.32;1.80;;;12.60;99.90;;;;;;5027991;28;20510;-73
2024/03/21 10:20:15;;;;;;;6.55;1.98;;;12.60;99.90;;;;;;5037649;28;20188;-72
2024/03/21 10:22:45;;;;;;;5.00;1.90;;;12.60;99.90;;;;;;5028088;28;20529;-73
2024/03/21 10:25:14;;;;;;;6.07;2.20;;;12.70;99.90;;;;;;5025996;28;20029;-74
2024/03/21 10:27:41;;;;;;;5.38;1.85;;;12.70;99.90;;;;;;5021594;28;20027;-74
2024/03/21 10:30:17;;;;;;;5.00;2.10;;;12.80;99.90;;;;;;5023442;28;20025;-74
2024/03/21 10:32:43;;;;;;;6.82;2.08;;;12.90;99.90;;;;;;5025447;28;20259;-74
2024/03/21 10:35:15;;;;;;;7.45;1.90;;;13.00;99.90;;;;;;5027906;28;20057;-74
2024/03/21 10:37:43;;;;;;;8.98;2.30;;;12.90;99.90;;;;;;5014186;28;20024;-74
2024/03/21 10:40:13;;;;;;;6.78;2.17;;;13.00;99.90;;;;;;5023554;28;20049;-74
2024/03/21 10:42:52;;;;;;;10.15;2.42;;;13.00;99.90;;;;;;5026091;28;20025;-74
2024/03/21 10:45:19;;;;;;;4.85;1.80;;;13.00;99.90;;;;;;5016582;28;20803;-74
2024/03/21 10:47:49;;;;;;;7.78;2.00;;;13.00;99.90;;;;;;5023972;28;20022;-73
2024/03/21 10:50:22;;;;;;;4.40;1.98;;;13.00;99.90;;;;;;5024648;28;20556;-74
2024/03/21 10:52:53;;;;;;;4.85;1.77;;;13.10;99.90;;;;;;5021911;28;20018;-74
2024/03/21 10:55:20;;;;;;;3.80;1.73;;;13.20;99.90;;;;;;5008920;28;20547;-74
2024/03/21 10:57:54;;;;;;;4.93;1.80;;;13.30;99.90;;;;;;5021778;28;20087;-74
2024/03/21 11:00:21;;;;;;;5.32;1.98;;;13.40;99.90;;;;;;5018494;28;20025;-74
2024/03/21 11:02:49;;;;;;;5.93;1.70;;;13.50;99.90;;;;;;5014740;28;20032;-74
2024/03/21 11:05:16;;;;;;;7.15;2.03;;;13.50;99.90;;;;;;5014731;28;20147;-73
2024/03/21 11:07:45;;;;;;;6.57;1.83;;;13.50;99.90;;;;;;5027307;28;20075;-74
2024/03/21 11:10:18;;;;;;;4.90;1.63;;;13.60;99.90;;;;;;5013648;28;20028;-74
2024/03/21 11:12:48;;;;;;;8.40;2.78;;;13.70;99.90;;;;;;5027612;28;20053;-74
2024/03/21 11:15:14;;;;;;;8.38;2.15;;;13.70;99.90;;;;;;5013504;28;20132;-74
2024/03/21 11:17:40;;;;;;;6.82;1.90;;;13.70;99.90;;;;;;5014312;28;20173;-74
2024/03/21 11:20:08;;;;;;;5.10;1.83;;;13.70;99.90;;;;;;5021198;28;20061;-74
2024/03/21 11:22:38;;;;;;;5.93;2.05;;;13.70;99.90;;;;;;5024288;28;20067;-74
2024/03/21 11:25:04;;;;;;;6.65;1.85;;;13.80;99.90;;;;;;5023052;28;20462;-74
2024/03/21 11:27:30;;;;;;;7.50;2.38;;;13.90;99.90;;;;;;5024348;28;20120;-74
2024/03/21 11:29:56;;;;;;;4.15;2.00;;;13.90;99.90;;;;;;5026635;28;20033;-74
2024/03/21 11:32:23;;;;;;;7.28;2.47;;;13.80;99.90;;;;;;5024337;28;20034;-73
2024/03/21 11:34:50;;;;;;;7.45;2.60;;;13.80;99.90;;;;;;5016582;28;20022;-72
2024/03/21 11:37:16;;;;;;;5.85;1.90;;;13.70;99.90;;;;;;5012852;28;20034;-73
2024/03/21 11:39:41;;;;;;;5.75;2.00;;;13.70;99.90;;;;;;5025707;28;20455;-73
2024/03/21 11:42:12;;;;;;;6.45;2.50;;;13.80;99.90;;;;;;5025189;28;20032;-73
2024/03/21 11:44:42;;;;;;;6.28;1.92;;;13.90;99.90;;;;;;5022125;28;20388;-73
2024/03/21 11:47:16;;;;;;;5.28;2.25;;;13.80;99.90;;;;;;5024733;28;20029;-73
2024/03/21 11:49:47;;;;;;;4.88;1.65;;;13.80;99.90;;;;;;5013353;28;20021;-73
2024/03/21 11:52:14;;;;;;;;;;;13.90;99.90;;;;;;5021709;28;20120;-73
2024/03/21 11:54:40;;;;;;;7.07;2.05;;;13.90;99.90;;;;;;5018144;28;20114;-74
2024/03/21 11:57:08;;;;;;;6.82;1.85;;;13.90;99.90;;;;;;5026135;28;20029;-74
2024/03/21 11:59:37;;;;;;;8.80;2.72;;;14.00;99.90;;;;;;5026360;28;20044;-73
2024/03/21 12:02:08;;;;;;;6.65;1.90;;;14.00;99.90;;;;;;5026304;28;20414;-74
2024/03/21 12:04:34;;;;;;;5.57;1.40;;;14.10;99.90;;;;;;5017753;28;20025;-73
2024/03/21 12:06:59;;;;;;;5.15;2.08;;;14.20;99.90;;;;;;5023110;28;20812;-74
2024/03/21 12:09:25;;;;;;;8.73;1.70;;;14.20;99.90;;;;;;5026375;28;20025;-74
2024/03/21 12:11:50;;;;;;;5.18;1.90;;;14.30;99.90;;;;;;5025721;28;20029;-74
2024/03/21 12:14:16;;;;;;;8.20;2.60;;;14.20;99.90;;;;;;5026563;28;20029;-74
2024/03/21 12:16:42;;;;;;;8.25;1.90;;;14.00;99.90;;;;;;5025442;28;20021;-73
2024/03/21 12:19:09;;;;;;;7.57;1.92;;;14.00;99.90;;;;;;5026540;28;20033;-74
2024/03/21 12:21:34;;;;;;;6.47;2.00;;;14.00;99.90;;;;;;5025919;28;20030;-74
2024/03/21 12:24:00;;;;;;;11.02;2.25;;;13.80;99.90;;;;;;5026396;28;20021;-74
2024/03/21 12:26:26;;;;;;;6.88;2.00;;;13.70;99.90;;;;;;5024236;28;20533;-74
2024/03/21 12:28:55;;;;;;;5.88;1.80;;;13.60;99.90;;;;;;5025829;28;20148;-74
2024/03/21 12:31:21;;;;;;;4.78;1.52;;;13.60;99.90;;;;;;5025783;28;20123;-74
2024/03/21 12:33:50;;;;;;;6.85;1.85;;;13.60;99.90;;;;;;5026326;28;20112;-74
2024/03/21 12:36:18;;;;;;;10.60;1.85;;;13.70;99.90;;;;;;5016638;28;20044;-74
2024/03/21 12:38:44;;;;;;;4.35;1.50;;;13.70;99.90;;;;;;5006155;28;20358;-74
2024/03/21 12:41:14;;;;;;;5.82;2.00;;;13.80;99.90;;;;;;5019270;28;20029;-74
2024/03/21 12:43:41;;;;;;;6.18;2.20;;;13.70;99.90;;;;;;5024443;28;20043;-74
2024/03/21 12:46:09;;;;;;;7.22;2.40;;;13.60;99.90;;;;;;5025537;28;20807;-74
2024/03/21 12:48:35;;;;;;;5.10;2.13;;;13.50;99.90;;;;;;5025224;28;20033;-74
2024/03/21 12:51:03;;;;;;;4.57;1.60;;;13.40;99.90;;;;;;5030268;28;20029;-73